sensor_id;sensor_type;location;lat;lon;timestamp;P1;durP1;ratioP1;P2;durP2;ratioP2
9934;SDS011;5006;41.828;23.478;2022-11-15T00:01:16;5.82;;;2.50;;
9934;SDS011;5006;41.828;23.478;2022-11-15T00:02:40;3.83;;;2.95;;
9934;SDS011;5006;41.828;23.478;2022-11-15T00:04:04;3.40;;;2.78;;
9934;SDS011;5006;41.828;23.478;2022-11-15T00:05:28;2.78;;;2.50;;
9934;SDS011;5006;41.828;23.478;2022-11-15T00:06:52;3.42;;;2.50;;
9934;SDS011;5006;41.828;23.478;2022-11-15T00:08:16;4.70;;;2.85;;
9934;SDS011;5006;41.828;23.478;2022-11-15T00:09:40;3.45;;;2.53;;
9934;SDS011;5006;41.828;23.478;2022-11-15T00:11:06;4.28;;;2.70;;
9934;SDS011;5006;41.828;23.478;2022-11-15T00:12:30;3.08;;;2.65;;
9934;SDS011;5006;41.828;23.478;2022-11-15T00:13:54;3.55;;;2.47;;
9934;SDS011;5006;41.828;23.478;2022-11-15T00:15:19;2.88;;;2.50;;
9934;SDS011;5006;41.828;23.478;2022-11-15T00:16:43;3.40;;;2.60;;
9934;SDS011;5006;41.828;23.478;2022-11-15T00:18:11;4.70;;;2.60;;
9934;SDS011;5006;41.828;23.478;2022-11-15T00:19:36;2.80;;;2.35;;
9934;SDS011;5006;41.828;23.478;2022-11-15T00:21:03;3.90;;;2.65;;
9934;SDS011;5006;41.828;23.478;2022-11-15T00:22:31;4.30;;;2.78;;
9934;SDS011;5006;41.828;23.478;2022-11-15T00:23:56;4.30;;;2.83;;
9934;SDS011;5006;41.828;23.478;2022-11-15T00:25:20;2.65;;;2.45;;
9934;SDS011;5006;41.828;23.478;2022-11-15T00:26:45;3.45;;;2.70;;
9934;SDS011;5006;41.828;23.478;2022-11-15T00:28:10;3.13;;;2.70;;
9934;SDS011;5006;41.828;23.478;2022-11-15T00:29:33;4.40;;;2.60;;
9934;SDS011;5006;41.828;23.478;2022-11-15T00:31:00;4.75;;;2.75;;
9934;SDS011;5006;41.828;23.478;2022-11-15T00:32:25;3.17;;;2.88;;
9934;SDS011;5006;41.828;23.478;2022-11-15T00:33:49;4.93;;;3.05;;
9934;SDS011;5006;41.828;23.478;2022-11-15T00:35:13;5.00;;;3.25;;
9934;SDS011;5006;41.828;23.478;2022-11-15T00:36:36;3.58;;;2.85;;
9934;SDS011;5006;41.828;23.478;2022-11-15T00:38:01;5.95;;;3.40;;
9934;SDS011;5006;41.828;23.478;2022-11-15T00:39:25;3.55;;;2.97;;
9934;SDS011;5006;41.828;23.478;2022-11-15T00:40:49;5.53;;;3.50;;
9934;SDS011;5006;41.828;23.478;2022-11-15T00:42:15;3.72;;;3.33;;
9934;SDS011;5006;41.828;23.478;2022-11-15T00:43:39;4.40;;;3.72;;
9934;SDS011;5006;41.828;23.478;2022-11-15T00:45:03;4.47;;;3.40;;
9934;SDS011;5006;41.828;23.478;2022-11-15T00:46:27;4.10;;;3.40;;
9934;SDS011;5006;41.828;23.478;2022-11-15T00:47:52;4.03;;;3.10;;
9934;SDS011;5006;41.828;23.478;2022-11-15T00:49:15;3.58;;;2.97;;
9934;SDS011;5006;41.828;23.478;2022-11-15T00:50:39;4.80;;;3.15;;
9934;SDS011;5006;41.828;23.478;2022-11-15T00:52:03;5.55;;;3.20;;
9934;SDS011;5006;41.828;23.478;2022-11-15T00:53:28;3.63;;;2.75;;
9934;SDS011;5006;41.828;23.478;2022-11-15T00:54:52;4.88;;;2.90;;
9934;SDS011;5006;41.828;23.478;2022-11-15T00:56:15;3.53;;;2.95;;
9934;SDS011;5006;41.828;23.478;2022-11-15T00:57:41;3.78;;;3.05;;
9934;SDS011;5006;41.828;23.478;2022-11-15T00:59:04;4.03;;;3.17;;
9934;SDS011;5006;41.828;23.478;2022-11-15T01:00:28;4.82;;;3.50;;
9934;SDS011;5006;41.828;23.478;2022-11-15T01:01:52;9.32;;;3.30;;
9934;SDS011;5006;41.828;23.478;2022-11-15T01:03:16;3.92;;;3.53;;
9934;SDS011;5006;41.828;23.478;2022-11-15T01:04:40;3.47;;;3.03;;
9934;SDS011;5006;41.828;23.478;2022-11-15T01:06:04;4.57;;;3.00;;
9934;SDS011;5006;41.828;23.478;2022-11-15T01:07:29;3.85;;;2.78;;
9934;SDS011;5006;41.828;23.478;2022-11-15T01:08:52;3.58;;;2.90;;
9934;SDS011;5006;41.828;23.478;2022-11-15T01:10:16;3.03;;;2.60;;
9934;SDS011;5006;41.828;23.478;2022-11-15T01:11:40;3.45;;;2.75;;
9934;SDS011;5006;41.828;23.478;2022-11-15T01:13:06;4.35;;;3.03;;
9934;SDS011;5006;41.828;23.478;2022-11-15T01:14:31;3.33;;;2.75;;
9934;SDS011;5006;41.828;23.478;2022-11-15T01:15:55;4.10;;;3.00;;
9934;SDS011;5006;41.828;23.478;2022-11-15T01:17:19;4.55;;;3.05;;
9934;SDS011;5006;41.828;23.478;2022-11-15T01:18:43;4.85;;;3.05;;
9934;SDS011;5006;41.828;23.478;2022-11-15T01:20:08;3.88;;;2.90;;
9934;SDS011;5006;41.828;23.478;2022-11-15T01:21:33;3.78;;;3.17;;
9934;SDS011;5006;41.828;23.478;2022-11-15T01:22:57;4.25;;;3.45;;
9934;SDS011;5006;41.828;23.478;2022-11-15T01:24:22;4.60;;;3.53;;
9934;SDS011;5006;41.828;23.478;2022-11-15T01:25:46;3.28;;;2.88;;
9934;SDS011;5006;41.828;23.478;2022-11-15T01:27:10;4.75;;;3.00;;
9934;SDS011;5006;41.828;23.478;2022-11-15T01:28:37;3.78;;;2.92;;
9934;SDS011;5006;41.828;23.478;2022-11-15T01:30:02;3.13;;;2.83;;
9934;SDS011;5006;41.828;23.478;2022-11-15T01:31:27;3.67;;;3.05;;
9934;SDS011;5006;41.828;23.478;2022-11-15T01:32:51;4.28;;;3.30;;
9934;SDS011;5006;41.828;23.478;2022-11-15T01:34:16;4.22;;;3.05;;
9934;SDS011;5006;41.828;23.478;2022-11-15T01:35:39;3.78;;;3.17;;
9934;SDS011;5006;41.828;23.478;2022-11-15T01:37:03;4.07;;;2.92;;
9934;SDS011;5006;41.828;23.478;2022-11-15T01:38:27;3.80;;;2.92;;
9934;SDS011;5006;41.828;23.478;2022-11-15T01:39:51;3.60;;;3.15;;
9934;SDS011;5006;41.828;23.478;2022-11-15T01:41:16;4.15;;;3.05;;
9934;SDS011;5006;41.828;23.478;2022-11-15T01:42:40;4.85;;;3.15;;
9934;SDS011;5006;41.828;23.478;2022-11-15T01:46:06;3.63;;;2.88;;
9934;SDS011;5006;41.828;23.478;2022-11-15T01:47:43;4.90;;;3.10;;
9934;SDS011;5006;41.828;23.478;2022-11-15T01:49:11;4.28;;;3.05;;
9934;SDS011;5006;41.828;23.478;2022-11-15T01:50:38;4.28;;;3.25;;
9934;SDS011;5006;41.828;23.478;2022-11-15T01:52:03;4.30;;;3.08;;
9934;SDS011;5006;41.828;23.478;2022-11-15T01:53:31;4.07;;;2.63;;
9934;SDS011;5006;41.828;23.478;2022-11-15T01:54:59;6.72;;;3.38;;
9934;SDS011;5006;41.828;23.478;2022-11-15T01:56:30;4.13;;;3.05;;
9934;SDS011;5006;41.828;23.478;2022-11-15T01:57:57;3.88;;;3.10;;
9934;SDS011;5006;41.828;23.478;2022-11-15T01:59:24;5.45;;;3.20;;
9934;SDS011;5006;41.828;23.478;2022-11-15T02:00:50;4.38;;;3.15;;
9934;SDS011;5006;41.828;23.478;2022-11-15T02:02:15;5.55;;;3.25;;
9934;SDS011;5006;41.828;23.478;2022-11-15T02:03:40;4.55;;;2.83;;
9934;SDS011;5006;41.828;23.478;2022-11-15T02:05:08;3.75;;;2.60;;
9934;SDS011;5006;41.828;23.478;2022-11-15T02:06:32;4.60;;;2.80;;
9934;SDS011;5006;41.828;23.478;2022-11-15T02:07:59;3.10;;;2.65;;
9934;SDS011;5006;41.828;23.478;2022-11-15T02:09:24;3.53;;;2.90;;
9934;SDS011;5006;41.828;23.478;2022-11-15T02:10:47;3.75;;;3.08;;
9934;SDS011;5006;41.828;23.478;2022-11-15T02:12:13;4.45;;;3.33;;
9934;SDS011;5006;41.828;23.478;2022-11-15T02:13:41;3.60;;;3.15;;
9934;SDS011;5006;41.828;23.478;2022-11-15T02:15:07;4.32;;;2.75;;
9934;SDS011;5006;41.828;23.478;2022-11-15T02:16:47;3.03;;;2.70;;
9934;SDS011;5006;41.828;23.478;2022-11-15T02:18:18;4.95;;;3.40;;
9934;SDS011;5006;41.828;23.478;2022-11-15T02:20:01;3.50;;;2.83;;
9934;SDS011;5006;41.828;23.478;2022-11-15T02:21:53;4.18;;;3.28;;
9934;SDS011;5006;41.828;23.478;2022-11-15T02:23:47;3.55;;;2.90;;
9934;SDS011;5006;41.828;23.478;2022-11-15T02:29:25;2.97;;;2.67;;
9934;SDS011;5006;41.828;23.478;2022-11-15T02:31:06;5.53;;;3.00;;
9934;SDS011;5006;41.828;23.478;2022-11-15T02:32:39;4.10;;;2.50;;
9934;SDS011;5006;41.828;23.478;2022-11-15T02:34:09;4.28;;;2.42;;
9934;SDS011;5006;41.828;23.478;2022-11-15T02:35:41;4.30;;;2.60;;
9934;SDS011;5006;41.828;23.478;2022-11-15T02:37:14;2.88;;;2.42;;
9934;SDS011;5006;41.828;23.478;2022-11-15T02:38:43;3.90;;;2.88;;
9934;SDS011;5006;41.828;23.478;2022-11-15T02:40:17;4.18;;;2.90;;
9934;SDS011;5006;41.828;23.478;2022-11-15T02:41:55;4.10;;;2.90;;
9934;SDS011;5006;41.828;23.478;2022-11-15T02:43:29;4.95;;;3.30;;
9934;SDS011;5006;41.828;23.478;2022-11-15T02:45:17;4.57;;;3.15;;
9934;SDS011;5006;41.828;23.478;2022-11-15T02:46:46;5.95;;;4.03;;
9934;SDS011;5006;41.828;23.478;2022-11-15T02:48:32;6.45;;;3.65;;
9934;SDS011;5006;41.828;23.478;2022-11-15T02:49:59;4.22;;;3.45;;
9934;SDS011;5006;41.828;23.478;2022-11-15T02:51:26;4.57;;;2.92;;
9934;SDS011;5006;41.828;23.478;2022-11-15T02:52:51;5.05;;;3.15;;
9934;SDS011;5006;41.828;23.478;2022-11-15T02:54:15;3.47;;;2.88;;
9934;SDS011;5006;41.828;23.478;2022-11-15T02:55:46;5.10;;;2.65;;
9934;SDS011;5006;41.828;23.478;2022-11-15T02:57:14;4.65;;;2.75;;
9934;SDS011;5006;41.828;23.478;2022-11-15T02:58:55;3.20;;;2.85;;
9934;SDS011;5006;41.828;23.478;2022-11-15T03:00:29;3.88;;;2.83;;
9934;SDS011;5006;41.828;23.478;2022-11-15T03:02:03;4.75;;;3.10;;
9934;SDS011;5006;41.828;23.478;2022-11-15T03:03:46;4.57;;;3.22;;
9934;SDS011;5006;41.828;23.478;2022-11-15T03:05:22;3.72;;;3.05;;
9934;SDS011;5006;41.828;23.478;2022-11-15T03:06:53;8.30;;;3.10;;
9934;SDS011;5006;41.828;23.478;2022-11-15T03:08:26;3.88;;;2.85;;
9934;SDS011;5006;41.828;23.478;2022-11-15T03:09:54;4.88;;;3.40;;
9934;SDS011;5006;41.828;23.478;2022-11-15T03:11:25;3.15;;;2.85;;
9934;SDS011;5006;41.828;23.478;2022-11-15T03:12:51;4.95;;;3.55;;
9934;SDS011;5006;41.828;23.478;2022-11-15T03:14:21;4.70;;;3.70;;
9934;SDS011;5006;41.828;23.478;2022-11-15T03:15:50;5.30;;;3.70;;
9934;SDS011;5006;41.828;23.478;2022-11-15T03:17:23;3.40;;;3.10;;
9934;SDS011;5006;41.828;23.478;2022-11-15T03:18:52;4.07;;;2.95;;
9934;SDS011;5006;41.828;23.478;2022-11-15T03:20:20;5.25;;;4.20;;
9934;SDS011;5006;41.828;23.478;2022-11-15T03:21:45;5.47;;;4.13;;
9934;SDS011;5006;41.828;23.478;2022-11-15T03:23:11;9.60;;;7.03;;
9934;SDS011;5006;41.828;23.478;2022-11-15T03:24:37;12.02;;;9.18;;
9934;SDS011;5006;41.828;23.478;2022-11-15T03:26:03;11.48;;;9.10;;
9934;SDS011;5006;41.828;23.478;2022-11-15T03:27:31;9.00;;;6.90;;
9934;SDS011;5006;41.828;23.478;2022-11-15T03:29:01;7.63;;;6.60;;
9934;SDS011;5006;41.828;23.478;2022-11-15T03:30:29;10.05;;;5.93;;
9934;SDS011;5006;41.828;23.478;2022-11-15T03:31:56;6.90;;;4.97;;
9934;SDS011;5006;41.828;23.478;2022-11-15T03:33:26;8.25;;;4.50;;
9934;SDS011;5006;41.828;23.478;2022-11-15T03:34:53;6.72;;;3.80;;
9934;SDS011;5006;41.828;23.478;2022-11-15T03:36:21;4.50;;;3.55;;
9934;SDS011;5006;41.828;23.478;2022-11-15T03:37:49;4.50;;;3.53;;
9934;SDS011;5006;41.828;23.478;2022-11-15T03:39:16;5.57;;;3.33;;
9934;SDS011;5006;41.828;23.478;2022-11-15T03:40:40;3.97;;;3.30;;
9934;SDS011;5006;41.828;23.478;2022-11-15T03:42:08;5.30;;;3.38;;
9934;SDS011;5006;41.828;23.478;2022-11-15T03:43:41;6.07;;;3.22;;
9934;SDS011;5006;41.828;23.478;2022-11-15T03:45:12;5.88;;;3.60;;
9934;SDS011;5006;41.828;23.478;2022-11-15T03:46:42;5.50;;;3.30;;
9934;SDS011;5006;41.828;23.478;2022-11-15T03:48:12;6.03;;;3.17;;
9934;SDS011;5006;41.828;23.478;2022-11-15T03:49:42;6.25;;;3.70;;
9934;SDS011;5006;41.828;23.478;2022-11-15T03:51:09;3.95;;;3.40;;
9934;SDS011;5006;41.828;23.478;2022-11-15T03:52:34;4.15;;;3.50;;
9934;SDS011;5006;41.828;23.478;2022-11-15T03:53:58;4.65;;;3.53;;
9934;SDS011;5006;41.828;23.478;2022-11-15T03:55:23;4.25;;;3.20;;
9934;SDS011;5006;41.828;23.478;2022-11-15T03:56:47;5.43;;;3.40;;
9934;SDS011;5006;41.828;23.478;2022-11-15T03:58:11;6.28;;;3.72;;
9934;SDS011;5006;41.828;23.478;2022-11-15T03:59:35;4.53;;;3.55;;
9934;SDS011;5006;41.828;23.478;2022-11-15T04:00:59;4.55;;;3.55;;
9934;SDS011;5006;41.828;23.478;2022-11-15T04:02:23;4.68;;;3.70;;
9934;SDS011;5006;41.828;23.478;2022-11-15T04:03:47;5.72;;;4.10;;
9934;SDS011;5006;41.828;23.478;2022-11-15T04:05:13;4.93;;;3.50;;
9934;SDS011;5006;41.828;23.478;2022-11-15T04:06:37;5.70;;;4.03;;
9934;SDS011;5006;41.828;23.478;2022-11-15T04:08:01;6.13;;;4.05;;
9934;SDS011;5006;41.828;23.478;2022-11-15T04:09:25;5.78;;;3.92;;
9934;SDS011;5006;41.828;23.478;2022-11-15T04:10:50;6.03;;;4.20;;
9934;SDS011;5006;41.828;23.478;2022-11-15T04:12:14;5.15;;;3.60;;
9934;SDS011;5006;41.828;23.478;2022-11-15T04:13:53;5.05;;;3.65;;
9934;SDS011;5006;41.828;23.478;2022-11-15T04:15:18;6.65;;;3.90;;
9934;SDS011;5006;41.828;23.478;2022-11-15T04:16:43;5.25;;;3.67;;
9934;SDS011;5006;41.828;23.478;2022-11-15T04:18:07;4.07;;;3.30;;
9934;SDS011;5006;41.828;23.478;2022-11-15T04:19:31;6.32;;;3.55;;
9934;SDS011;5006;41.828;23.478;2022-11-15T04:21:14;4.82;;;3.47;;
9934;SDS011;5006;41.828;23.478;2022-11-15T04:22:57;4.70;;;3.10;;
9934;SDS011;5006;41.828;23.478;2022-11-15T04:24:40;4.43;;;3.40;;
9934;SDS011;5006;41.828;23.478;2022-11-15T04:26:05;4.15;;;3.17;;
9934;SDS011;5006;41.828;23.478;2022-11-15T04:27:32;5.38;;;3.33;;
9934;SDS011;5006;41.828;23.478;2022-11-15T04:28:56;5.72;;;2.88;;
9934;SDS011;5006;41.828;23.478;2022-11-15T04:30:38;3.55;;;2.97;;
9934;SDS011;5006;41.828;23.478;2022-11-15T04:32:03;4.15;;;2.97;;
9934;SDS011;5006;41.828;23.478;2022-11-15T04:33:28;4.00;;;3.13;;
9934;SDS011;5006;41.828;23.478;2022-11-15T04:34:52;4.40;;;3.50;;
9934;SDS011;5006;41.828;23.478;2022-11-15T04:36:16;6.65;;;3.50;;
9934;SDS011;5006;41.828;23.478;2022-11-15T04:37:59;4.78;;;3.25;;
9934;SDS011;5006;41.828;23.478;2022-11-15T04:39:24;4.32;;;3.08;;
9934;SDS011;5006;41.828;23.478;2022-11-15T04:40:47;4.85;;;3.00;;
9934;SDS011;5006;41.828;23.478;2022-11-15T04:42:11;3.88;;;2.80;;
9934;SDS011;5006;41.828;23.478;2022-11-15T04:43:35;4.25;;;2.90;;
9934;SDS011;5006;41.828;23.478;2022-11-15T04:45:00;5.15;;;2.97;;
9934;SDS011;5006;41.828;23.478;2022-11-15T04:46:24;4.07;;;2.90;;
9934;SDS011;5006;41.828;23.478;2022-11-15T04:47:49;4.75;;;2.72;;
9934;SDS011;5006;41.828;23.478;2022-11-15T04:49:12;3.55;;;2.70;;
9934;SDS011;5006;41.828;23.478;2022-11-15T04:50:37;3.22;;;2.38;;
9934;SDS011;5006;41.828;23.478;2022-11-15T04:52:01;5.78;;;3.15;;
9934;SDS011;5006;41.828;23.478;2022-11-15T04:53:26;4.00;;;2.60;;
9934;SDS011;5006;41.828;23.478;2022-11-15T04:54:49;3.53;;;2.80;;
9934;SDS011;5006;41.828;23.478;2022-11-15T04:56:14;3.15;;;2.55;;
9934;SDS011;5006;41.828;23.478;2022-11-15T04:57:38;4.18;;;2.65;;
9934;SDS011;5006;41.828;23.478;2022-11-15T04:59:01;3.35;;;2.80;;
9934;SDS011;5006;41.828;23.478;2022-11-15T05:00:26;4.18;;;3.10;;
9934;SDS011;5006;41.828;23.478;2022-11-15T05:01:51;4.03;;;3.00;;
9934;SDS011;5006;41.828;23.478;2022-11-15T05:03:16;3.97;;;3.03;;
9934;SDS011;5006;41.828;23.478;2022-11-15T05:04:58;7.90;;;3.90;;
9934;SDS011;5006;41.828;23.478;2022-11-15T05:06:21;5.68;;;4.18;;
9934;SDS011;5006;41.828;23.478;2022-11-15T05:07:46;10.25;;;6.93;;
9934;SDS011;5006;41.828;23.478;2022-11-15T05:09:11;8.57;;;6.00;;
9934;SDS011;5006;41.828;23.478;2022-11-15T05:10:35;5.93;;;4.28;;
9934;SDS011;5006;41.828;23.478;2022-11-15T05:12:00;4.60;;;3.50;;
9934;SDS011;5006;41.828;23.478;2022-11-15T05:13:24;5.45;;;3.40;;
9934;SDS011;5006;41.828;23.478;2022-11-15T05:14:47;4.78;;;3.15;;
9934;SDS011;5006;41.828;23.478;2022-11-15T05:16:11;4.35;;;3.20;;
9934;SDS011;5006;41.828;23.478;2022-11-15T05:17:35;4.15;;;3.33;;
9934;SDS011;5006;41.828;23.478;2022-11-15T05:18:59;4.97;;;3.30;;
9934;SDS011;5006;41.828;23.478;2022-11-15T05:20:22;4.55;;;3.03;;
9934;SDS011;5006;41.828;23.478;2022-11-15T05:21:46;5.05;;;2.80;;
9934;SDS011;5006;41.828;23.478;2022-11-15T05:23:12;5.15;;;3.33;;
9934;SDS011;5006;41.828;23.478;2022-11-15T05:24:36;3.50;;;2.92;;
9934;SDS011;5006;41.828;23.478;2022-11-15T05:26:00;6.00;;;3.72;;
9934;SDS011;5006;41.828;23.478;2022-11-15T05:27:23;7.30;;;3.40;;
9934;SDS011;5006;41.828;23.478;2022-11-15T05:28:51;4.03;;;2.97;;
9934;SDS011;5006;41.828;23.478;2022-11-15T05:30:16;4.45;;;3.05;;
9934;SDS011;5006;41.828;23.478;2022-11-15T05:31:40;5.53;;;3.58;;
9934;SDS011;5006;41.828;23.478;2022-11-15T05:33:05;5.45;;;3.67;;
9934;SDS011;5006;41.828;23.478;2022-11-15T05:34:30;5.55;;;3.30;;
9934;SDS011;5006;41.828;23.478;2022-11-15T05:35:54;6.00;;;3.90;;
9934;SDS011;5006;41.828;23.478;2022-11-15T05:37:23;5.82;;;3.40;;
9934;SDS011;5006;41.828;23.478;2022-11-15T05:38:49;4.28;;;3.30;;
9934;SDS011;5006;41.828;23.478;2022-11-15T05:40:13;5.32;;;3.80;;
9934;SDS011;5006;41.828;23.478;2022-11-15T05:41:37;6.57;;;3.25;;
9934;SDS011;5006;41.828;23.478;2022-11-15T05:43:07;5.15;;;3.28;;
9934;SDS011;5006;41.828;23.478;2022-11-15T05:44:32;4.95;;;3.35;;
9934;SDS011;5006;41.828;23.478;2022-11-15T05:45:57;5.60;;;3.83;;
9934;SDS011;5006;41.828;23.478;2022-11-15T05:47:22;4.32;;;3.35;;
9934;SDS011;5006;41.828;23.478;2022-11-15T05:48:49;4.95;;;3.80;;
9934;SDS011;5006;41.828;23.478;2022-11-15T05:50:14;4.50;;;3.75;;
9934;SDS011;5006;41.828;23.478;2022-11-15T05:51:41;7.22;;;4.90;;
9934;SDS011;5006;41.828;23.478;2022-11-15T05:53:10;6.15;;;4.68;;
9934;SDS011;5006;41.828;23.478;2022-11-15T05:54:37;7.25;;;4.70;;
9934;SDS011;5006;41.828;23.478;2022-11-15T05:56:03;10.77;;;6.65;;
9934;SDS011;5006;41.828;23.478;2022-11-15T05:57:28;5.13;;;4.00;;
9934;SDS011;5006;41.828;23.478;2022-11-15T05:58:53;6.10;;;3.60;;
9934;SDS011;5006;41.828;23.478;2022-11-15T06:00:20;3.88;;;3.08;;
9934;SDS011;5006;41.828;23.478;2022-11-15T06:01:45;5.00;;;3.58;;
9934;SDS011;5006;41.828;23.478;2022-11-15T06:03:09;4.88;;;3.35;;
9934;SDS011;5006;41.828;23.478;2022-11-15T06:04:33;5.85;;;3.42;;
9934;SDS011;5006;41.828;23.478;2022-11-15T06:05:58;4.88;;;3.00;;
9934;SDS011;5006;41.828;23.478;2022-11-15T06:07:21;3.50;;;3.00;;
9934;SDS011;5006;41.828;23.478;2022-11-15T06:08:46;6.18;;;3.22;;
9934;SDS011;5006;41.828;23.478;2022-11-15T06:10:11;6.38;;;3.67;;
9934;SDS011;5006;41.828;23.478;2022-11-15T06:11:36;5.95;;;4.20;;
9934;SDS011;5006;41.828;23.478;2022-11-15T06:13:00;5.85;;;4.18;;
9934;SDS011;5006;41.828;23.478;2022-11-15T06:14:25;7.20;;;5.28;;
9934;SDS011;5006;41.828;23.478;2022-11-15T06:15:50;9.80;;;5.47;;
9934;SDS011;5006;41.828;23.478;2022-11-15T06:17:14;7.65;;;5.13;;
9934;SDS011;5006;41.828;23.478;2022-11-15T06:18:38;8.65;;;5.68;;
9934;SDS011;5006;41.828;23.478;2022-11-15T06:20:03;6.85;;;5.57;;
9934;SDS011;5006;41.828;23.478;2022-11-15T06:21:27;7.03;;;4.90;;
9934;SDS011;5006;41.828;23.478;2022-11-15T06:22:55;9.35;;;5.03;;
9934;SDS011;5006;41.828;23.478;2022-11-15T06:24:20;6.55;;;5.32;;
9934;SDS011;5006;41.828;23.478;2022-11-15T06:25:46;10.38;;;6.18;;
9934;SDS011;5006;41.828;23.478;2022-11-15T06:27:10;8.65;;;5.63;;
9934;SDS011;5006;41.828;23.478;2022-11-15T06:28:34;8.70;;;5.68;;
9934;SDS011;5006;41.828;23.478;2022-11-15T06:29:58;8.35;;;6.20;;
9934;SDS011;5006;41.828;23.478;2022-11-15T06:31:23;9.27;;;6.50;;
9934;SDS011;5006;41.828;23.478;2022-11-15T06:32:47;7.07;;;6.35;;
9934;SDS011;5006;41.828;23.478;2022-11-15T06:34:10;8.20;;;6.20;;
9934;SDS011;5006;41.828;23.478;2022-11-15T06:35:35;8.10;;;6.53;;
9934;SDS011;5006;41.828;23.478;2022-11-15T06:37:00;9.35;;;6.68;;
9934;SDS011;5006;41.828;23.478;2022-11-15T06:38:24;8.45;;;6.57;;
9934;SDS011;5006;41.828;23.478;2022-11-15T06:39:49;7.95;;;6.53;;
9934;SDS011;5006;41.828;23.478;2022-11-15T06:41:14;7.35;;;5.78;;
9934;SDS011;5006;41.828;23.478;2022-11-15T06:42:39;8.25;;;6.28;;
9934;SDS011;5006;41.828;23.478;2022-11-15T06:44:02;16.30;;;7.50;;
9934;SDS011;5006;41.828;23.478;2022-11-15T06:45:27;16.40;;;7.85;;
9934;SDS011;5006;41.828;23.478;2022-11-15T06:46:51;17.25;;;8.32;;
9934;SDS011;5006;41.828;23.478;2022-11-15T06:48:15;26.20;;;16.45;;
9934;SDS011;5006;41.828;23.478;2022-11-15T06:49:39;27.85;;;18.63;;
9934;SDS011;5006;41.828;23.478;2022-11-15T06:51:03;30.80;;;21.08;;
9934;SDS011;5006;41.828;23.478;2022-11-15T06:52:29;32.72;;;22.33;;
9934;SDS011;5006;41.828;23.478;2022-11-15T06:53:56;26.73;;;20.67;;
9934;SDS011;5006;41.828;23.478;2022-11-15T06:55:20;36.47;;;25.90;;
9934;SDS011;5006;41.828;23.478;2022-11-15T06:56:46;57.65;;;41.33;;
9934;SDS011;5006;41.828;23.478;2022-11-15T06:58:10;70.35;;;49.83;;
9934;SDS011;5006;41.828;23.478;2022-11-15T06:59:34;72.57;;;52.25;;
9934;SDS011;5006;41.828;23.478;2022-11-15T07:00:59;97.43;;;69.25;;
9934;SDS011;5006;41.828;23.478;2022-11-15T07:02:24;114.78;;;87.05;;
9934;SDS011;5006;41.828;23.478;2022-11-15T07:03:49;121.03;;;90.65;;
9934;SDS011;5006;41.828;23.478;2022-11-15T07:05:13;139.20;;;98.97;;
9934;SDS011;5006;41.828;23.478;2022-11-15T07:06:38;148.07;;;108.53;;
9934;SDS011;5006;41.828;23.478;2022-11-15T07:08:02;141.88;;;106.10;;
9934;SDS011;5006;41.828;23.478;2022-11-15T07:09:27;151.70;;;111.45;;
9934;SDS011;5006;41.828;23.478;2022-11-15T07:10:52;152.75;;;115.65;;
9934;SDS011;5006;41.828;23.478;2022-11-15T07:12:17;146.23;;;115.63;;
9934;SDS011;5006;41.828;23.478;2022-11-15T07:13:42;144.73;;;113.82;;
9934;SDS011;5006;41.828;23.478;2022-11-15T07:15:07;156.02;;;119.70;;
9934;SDS011;5006;41.828;23.478;2022-11-15T07:16:32;166.80;;;125.43;;
9934;SDS011;5006;41.828;23.478;2022-11-15T07:18:00;160.95;;;130.80;;
9934;SDS011;5006;41.828;23.478;2022-11-15T07:19:24;176.38;;;133.52;;
9934;SDS011;5006;41.828;23.478;2022-11-15T07:20:49;145.18;;;118.38;;
9934;SDS011;5006;41.828;23.478;2022-11-15T07:22:13;105.75;;;85.38;;
9934;SDS011;5006;41.828;23.478;2022-11-15T07:23:37;101.82;;;79.00;;
9934;SDS011;5006;41.828;23.478;2022-11-15T07:25:02;94.78;;;80.57;;
9934;SDS011;5006;41.828;23.478;2022-11-15T07:26:27;97.05;;;79.22;;
9934;SDS011;5006;41.828;23.478;2022-11-15T07:27:55;116.53;;;83.70;;
9934;SDS011;5006;41.828;23.478;2022-11-15T07:29:19;103.45;;;82.47;;
9934;SDS011;5006;41.828;23.478;2022-11-15T07:30:43;98.32;;;84.30;;
9934;SDS011;5006;41.828;23.478;2022-11-15T07:32:08;88.70;;;70.70;;
9934;SDS011;5006;41.828;23.478;2022-11-15T07:33:32;72.18;;;62.60;;
9934;SDS011;5006;41.828;23.478;2022-11-15T07:34:57;67.43;;;54.50;;
9934;SDS011;5006;41.828;23.478;2022-11-15T07:36:21;66.85;;;57.60;;
9934;SDS011;5006;41.828;23.478;2022-11-15T07:37:52;73.30;;;54.65;;
9934;SDS011;5006;41.828;23.478;2022-11-15T07:39:15;64.63;;;51.92;;
9934;SDS011;5006;41.828;23.478;2022-11-15T07:40:40;50.78;;;43.20;;
9934;SDS011;5006;41.828;23.478;2022-11-15T07:42:04;57.17;;;45.70;;
9934;SDS011;5006;41.828;23.478;2022-11-15T07:43:48;57.72;;;44.80;;
9934;SDS011;5006;41.828;23.478;2022-11-15T07:45:15;65.28;;;51.92;;
9934;SDS011;5006;41.828;23.478;2022-11-15T07:46:39;48.20;;;41.80;;
9934;SDS011;5006;41.828;23.478;2022-11-15T07:48:03;49.45;;;41.33;;
9934;SDS011;5006;41.828;23.478;2022-11-15T07:49:28;48.70;;;41.80;;
9934;SDS011;5006;41.828;23.478;2022-11-15T07:50:52;45.72;;;38.20;;
9934;SDS011;5006;41.828;23.478;2022-11-15T07:52:16;37.40;;;33.40;;
9934;SDS011;5006;41.828;23.478;2022-11-15T07:53:40;30.48;;;27.27;;
9934;SDS011;5006;41.828;23.478;2022-11-15T07:55:06;34.13;;;29.85;;
9934;SDS011;5006;41.828;23.478;2022-11-15T07:56:31;34.28;;;28.88;;
9934;SDS011;5006;41.828;23.478;2022-11-15T07:57:59;37.67;;;33.55;;
9934;SDS011;5006;41.828;23.478;2022-11-15T07:59:25;54.60;;;42.33;;
9934;SDS011;5006;41.828;23.478;2022-11-15T08:00:49;44.47;;;38.15;;
9934;SDS011;5006;41.828;23.478;2022-11-15T08:02:14;45.40;;;36.90;;
9934;SDS011;5006;41.828;23.478;2022-11-15T08:03:40;44.85;;;36.85;;
9934;SDS011;5006;41.828;23.478;2022-11-15T08:05:04;48.22;;;41.05;;
9934;SDS011;5006;41.828;23.478;2022-11-15T08:06:29;46.40;;;38.45;;
9934;SDS011;5006;41.828;23.478;2022-11-15T08:07:54;46.85;;;40.20;;
9934;SDS011;5006;41.828;23.478;2022-11-15T08:09:19;47.55;;;40.75;;
9934;SDS011;5006;41.828;23.478;2022-11-15T08:10:43;50.50;;;40.55;;
9934;SDS011;5006;41.828;23.478;2022-11-15T08:12:07;50.10;;;43.28;;
9934;SDS011;5006;41.828;23.478;2022-11-15T08:13:32;59.22;;;49.83;;
9934;SDS011;5006;41.828;23.478;2022-11-15T08:14:57;62.28;;;55.33;;
9934;SDS011;5006;41.828;23.478;2022-11-15T08:16:22;56.58;;;49.50;;
9934;SDS011;5006;41.828;23.478;2022-11-15T08:17:52;51.85;;;46.25;;
9934;SDS011;5006;41.828;23.478;2022-11-15T08:19:17;62.70;;;52.70;;
9934;SDS011;5006;41.828;23.478;2022-11-15T08:20:41;68.15;;;58.15;;
9934;SDS011;5006;41.828;23.478;2022-11-15T08:22:06;69.88;;;61.40;;
9934;SDS011;5006;41.828;23.478;2022-11-15T08:23:32;71.22;;;62.20;;
9934;SDS011;5006;41.828;23.478;2022-11-15T08:24:57;74.40;;;61.22;;
9934;SDS011;5006;41.828;23.478;2022-11-15T08:26:35;68.65;;;61.20;;
9934;SDS011;5006;41.828;23.478;2022-11-15T08:28:30;78.15;;;68.40;;
9934;SDS011;5006;41.828;23.478;2022-11-15T08:30:07;77.35;;;66.28;;
9934;SDS011;5006;41.828;23.478;2022-11-15T08:31:31;79.68;;;67.07;;
9934;SDS011;5006;41.828;23.478;2022-11-15T08:32:56;70.53;;;62.25;;
9934;SDS011;5006;41.828;23.478;2022-11-15T08:34:28;72.35;;;63.35;;
9934;SDS011;5006;41.828;23.478;2022-11-15T08:35:58;75.18;;;66.07;;
9934;SDS011;5006;41.828;23.478;2022-11-15T08:37:26;77.30;;;66.45;;
9934;SDS011;5006;41.828;23.478;2022-11-15T08:38:53;73.47;;;65.40;;
9934;SDS011;5006;41.828;23.478;2022-11-15T08:40:22;76.70;;;64.30;;
9934;SDS011;5006;41.828;23.478;2022-11-15T08:41:53;79.72;;;67.22;;
9934;SDS011;5006;41.828;23.478;2022-11-15T08:43:17;76.00;;;64.32;;
9934;SDS011;5006;41.828;23.478;2022-11-15T08:44:43;71.72;;;63.88;;
9934;SDS011;5006;41.828;23.478;2022-11-15T08:46:08;69.28;;;60.58;;
9934;SDS011;5006;41.828;23.478;2022-11-15T08:47:36;69.85;;;58.97;;
9934;SDS011;5006;41.828;23.478;2022-11-15T08:51:08;67.88;;;57.67;;
9934;SDS011;5006;41.828;23.478;2022-11-15T08:52:40;71.70;;;58.67;;
9934;SDS011;5006;41.828;23.478;2022-11-15T08:54:05;71.05;;;60.20;;